Time;durP1;ratioP1;P1;durP2;ratioP2;P2;SDS_P1;SDS_P2;PMS_P1;PMS_P2;Temp;Humidity;BMP_temperature;BMP_pressure;BME280_temperature;BME280_humidity;BME280_pressure;Samples;Min_cycle;Max_cycle;Signal;HPM_P1;HPM_P2
2024/01/23 00:04:15;;;;;;;2.97;1.77;;;;;;;;;;6078322;23;20373;-91
2024/01/23 00:07:22;;;;;;;1.67;1.50;;;;;;;;;;6089762;23;20180;-92
2024/01/23 00:10:13;;;;;;;1.80;1.70;;;;;;;;;;6077360;23;20581;-93
2024/01/23 00:13:19;;;;;;;5.10;1.47;;;;;;;;;;6087815;23;20231;-93
2024/01/23 00:16:25;;;;;;;2.93;2.00;;;;;;;;;;6083880;23;20215;-92
2024/01/23 00:19:30;;;;;;;1.53;1.37;;;;;;;;;;6088811;23;20171;-92
2024/01/23 00:22:38;;;;;;;3.30;2.67;;;;;;;;;;6086491;23;20158;-93
2024/01/23 00:25:43;;;;;;;2.93;1.80;;;;;;;;;;6087598;23;20170;-93
2024/01/23 00:28:49;;;;;;;1.23;1.07;;;;;;;;;;6088665;23;20266;-92
2024/01/23 00:31:54;;;;;;;1.20;1.10;;;;;;;;;;6086844;23;20174;-93
2024/01/23 00:35:02;;;;;;;1.07;1.07;;;;;;;;;;6088355;23;20154;-92
2024/01/23 00:38:09;;;;;;;8.60;2.00;;;;;;;;;;6089552;23;20201;-93
2024/01/23 00:41:14;;;;;;;0.77;0.67;;;;;;;;;;6089272;23;20171;-92
2024/01/23 00:44:19;;;;;;;1.17;0.87;;;;;;;;;;6088010;23;20193;-93
2024/01/23 00:47:25;;;;;;;1.13;1.03;;;;;;;;;;6086162;23;20153;-92
2024/01/23 00:50:30;;;;;;;3.20;2.00;;;;;;;;;;6087268;23;20238;-94
2024/01/23 00:53:38;;;;;;;1.47;1.37;;;;;;;;;;6088286;23;20170;-94
2024/01/23 00:56:43;;;;;;;1.53;1.30;;;;;;;;;;6093361;23;20221;-91
2024/01/23 00:59:48;;;;;;;1.33;1.13;;;;;;;;;;6117020;23;20166;-92
2024/01/23 01:02:55;;;;;;;1.23;0.97;;;;;;;;;;6117157;23;20159;-92
2024/01/23 01:06:01;;;;;;;8.90;3.87;;;;;;;;;;6117264;23;20241;-91
2024/01/23 01:09:08;;;;;;;3.50;1.57;;;;;;;;;;6117381;23;20194;-92
2024/01/23 01:12:15;;;;;;;0.60;0.60;;;;;;;;;;6115382;23;20246;-92
2024/01/23 01:15:22;;;;;;;2.03;0.93;;;;;;;;;;6115387;23;20177;-93
2024/01/23 01:18:27;;;;;;;1.80;1.30;;;;;;;;;;6115761;23;20158;-92
2024/01/23 01:21:32;;;;;;;14.80;1.90;;;;;;;;;;6116317;23;20149;-93
2024/01/23 01:24:42;;;;;;;1.07;1.07;;;;;;;;;;6118405;23;20202;-93
2024/01/23 01:27:49;;;;;;;1.73;1.63;;;;;;;;;;6117402;23;20174;-92
2024/01/23 01:30:54;;;;;;;1.33;0.93;;;;;;;;;;6116436;23;20235;-92
2024/01/23 01:33:59;;;;;;;0.90;0.83;;;;;;;;;;6116050;23;20224;-92
2024/01/23 01:37:05;;;;;;;1.37;1.20;;;;;;;;;;6116227;23;20217;-92
2024/01/23 01:40:13;;;;;;;1.43;1.33;;;;;;;;;;6117528;23;20170;-93
2024/01/23 01:43:25;;;;;;;1.47;1.30;;;;;;;;;;6117725;23;20182;-93
2024/01/23 01:46:31;;;;;;;2.47;1.70;;;;;;;;;;6117732;23;20174;-93
2024/01/23 01:49:36;;;;;;;1.83;1.70;;;;;;;;;;6117981;23;20183;-92
2024/01/23 01:52:42;;;;;;;0.80;0.80;;;;;;;;;;6116802;23;20185;-92
2024/01/23 01:55:49;;;;;;;1.43;0.93;;;;;;;;;;6116203;23;20181;-93
2024/01/23 01:58:55;;;;;;;1.40;1.33;;;;;;;;;;6117919;23;20162;-93
2024/01/23 02:02:01;;;;;;;1.23;1.13;;;;;;;;;;6117349;23;20198;-92
2024/01/23 02:05:07;;;;;;;1.17;1.13;;;;;;;;;;6117883;23;20201;-91
2024/01/23 02:08:13;;;;;;;1.20;1.10;;;;;;;;;;6115601;23;20153;-93
2024/01/23 02:11:19;;;;;;;1.70;0.73;;;;;;;;;;6116285;23;20169;-92
2024/01/23 02:14:28;;;;;;;2.77;1.67;;;;;;;;;;6100237;23;21608;-93
2024/01/23 02:17:34;;;;;;;1.77;1.53;;;;;;;;;;6058816;23;20155;-94
2024/01/23 02:20:39;;;;;;;1.57;1.47;;;;;;;;;;6058802;23;20176;-92
2024/01/23 02:23:46;;;;;;;4.93;1.33;;;;;;;;;;6056938;23;20182;-92
2024/01/23 02:26:51;;;;;;;9.30;2.13;;;;;;;;;;6056724;23;20243;-92
2024/01/23 02:29:56;;;;;;;0.73;0.73;;;;;;;;;;6056978;23;20232;-92
2024/01/23 02:33:03;;;;;;;1.47;1.17;;;;;;;;;;6058966;23;20156;-92
2024/01/23 02:36:09;;;;;;;1.77;1.23;;;;;;;;;;6056878;23;20175;-91
2024/01/23 02:39:16;;;;;;;3.13;1.97;;;;;;;;;;6056243;23;20171;-90
2024/01/23 02:42:21;;;;;;;0.87;0.83;;;;;;;;;;6059093;23;20163;-92
2024/01/23 02:45:27;;;;;;;0.80;0.80;;;;;;;;;;6057594;23;20658;-91
2024/01/23 02:48:32;;;;;;;0.83;0.83;;;;;;;;;;6056831;23;20220;-93
2024/01/23 02:51:38;;;;;;;1.17;0.90;;;;;;;;;;6058240;23;20175;-93
2024/01/23 02:54:45;;;;;;;5.33;1.13;;;;;;;;;;6060627;23;20175;-92
2024/01/23 02:57:50;;;;;;;2.40;1.47;;;;;;;;;;6059397;23;20160;-93
2024/01/23 03:00:56;;;;;;;0.70;0.70;;;;;;;;;;6057654;23;20268;-93
2024/01/23 03:04:02;;;;;;;0.63;0.63;;;;;;;;;;6057005;23;20179;-93
2024/01/23 03:07:11;;;;;;;0.30;0.30;;;;;;;;;;6058613;23;20501;-92
2024/01/23 03:10:18;;;;;;;1.30;1.17;;;;;;;;;;6058196;23;20167;-92
2024/01/23 03:13:27;;;;;;;5.27;1.03;;;;;;;;;;6059983;23;20185;-90
2024/01/23 03:19:24;;;;;;;0.60;0.60;;;;;;;;;;6072207;23;20236;-92
2024/01/23 03:22:30;;;;;;;0.30;0.30;;;;;;;;;;6089112;23;20191;-92
2024/01/23 03:41:09;;;;;;;0.43;0.43;;;;;;;;;;6052442;23;20218;-92
2024/01/23 03:44:15;;;;;;;5.70;0.87;;;;;;;;;;6090886;23;20242;-93
2024/01/23 03:47:20;;;;;;;0.40;0.40;;;;;;;;;;6087738;23;20154;-93
2024/01/23 03:50:25;;;;;;;1.30;0.83;;;;;;;;;;6087752;23;20183;-93
2024/01/23 03:53:30;;;;;;;1.10;0.93;;;;;;;;;;6086391;23;20171;-93
2024/01/23 03:56:40;;;;;;;0.47;0.47;;;;;;;;;;6086829;23;20215;-94
2024/01/23 04:11:58;;;;;;;0.40;0.40;;;;;;;;;;6089689;23;20195;-91
2024/01/23 04:15:08;;;;;;;0.50;0.50;;;;;;;;;;6093213;23;20178;-91
2024/01/23 04:18:07;;;;;;;3.00;0.80;;;;;;;;;;6063861;23;20203;-92
2024/01/23 04:21:13;;;;;;;0.87;0.77;;;;;;;;;;6056986;23;20655;-94
2024/01/23 04:24:20;;;;;;;0.50;0.50;;;;;;;;;;6087540;23;20227;-93
2024/01/23 04:27:27;;;;;;;0.80;0.80;;;;;;;;;;6087380;23;20212;-93
2024/01/23 04:30:32;;;;;;;0.30;0.30;;;;;;;;;;6086166;23;20213;-91
2024/01/23 04:33:38;;;;;;;2.93;0.80;;;;;;;;;;6085822;23;20159;-91
2024/01/23 04:36:44;;;;;;;0.90;0.60;;;;;;;;;;6088166;23;20154;-93
2024/01/23 04:39:49;;;;;;;0.40;0.40;;;;;;;;;;6086974;23;20206;-92
2024/01/23 04:42:57;;;;;;;0.30;0.30;;;;;;;;;;6087437;23;20174;-91
2024/01/23 04:46:03;;;;;;;4.03;1.70;;;;;;;;;;6086572;23;20181;-94
2024/01/23 04:49:08;;;;;;;0.50;0.50;;;;;;;;;;6086831;23;20158;-91
2024/01/23 04:52:15;;;;;;;0.50;0.50;;;;;;;;;;6088891;23;20205;-91
2024/01/23 04:55:21;;;;;;;0.40;0.40;;;;;;;;;;6088113;23;20170;-92
2024/01/23 04:58:29;;;;;;;0.43;0.43;;;;;;;;;;6088981;23;20215;-93
2024/01/23 05:01:35;;;;;;;0.40;0.40;;;;;;;;;;6088466;23;20171;-94
2024/01/23 05:04:48;;;;;;;0.80;0.80;;;;;;;;;;6087878;23;20238;-92
2024/01/23 05:07:54;;;;;;;0.40;0.40;;;;;;;;;;6089457;23;20171;-93
2024/01/23 05:11:00;;;;;;;0.43;0.43;;;;;;;;;;6087982;23;20652;-94
2024/01/23 05:14:08;;;;;;;0.70;0.70;;;;;;;;;;6088472;23;20222;-93
2024/01/23 05:17:15;;;;;;;0.50;0.50;;;;;;;;;;6086308;23;20251;-91
2024/01/23 05:20:22;;;;;;;0.30;0.30;;;;;;;;;;6086637;23;20219;-91
2024/01/23 05:23:28;;;;;;;0.40;0.40;;;;;;;;;;6087968;23;20179;-91
2024/01/23 05:53:44;;;;;;;0.30;0.30;;;;;;;;;;6035566;23;20199;-91
2024/01/23 05:56:50;;;;;;;0.50;0.50;;;;;;;;;;6087434;23;20227;-93
2024/01/23 05:59:58;;;;;;;0.30;0.30;;;;;;;;;;6087644;23;20208;-91
2024/01/23 06:06:22;;;;;;;0.40;0.40;;;;;;;;;;6087189;23;20220;-90
2024/01/23 06:09:32;;;;;;;0.30;0.30;;;;;;;;;;6083402;23;20175;-90
2024/01/23 06:12:51;;;;;;;0.60;0.60;;;;;;;;;;6086726;23;20196;-92
2024/01/23 06:15:56;;;;;;;0.47;0.47;;;;;;;;;;6088419;23;20170;-92
2024/01/23 06:19:03;;;;;;;0.30;0.30;;;;;;;;;;6088925;23;20174;-90
2024/01/23 06:22:09;;;;;;;0.30;0.30;;;;;;;;;;6090428;23;20187;-91
2024/01/23 08:41:29;;;;;;;6.17;1.47;;;;;;;;;;6086653;23;20215;-93
2024/01/23 08:44:35;;;;;;;6.03;0.80;;;;;;;;;;6084592;23;20202;-93
2024/01/23 08:47:41;;;;;;;0.30;0.30;;;;;;;;;;6085528;23;20246;-93
2024/01/23 08:50:46;;;;;;;0.43;0.40;;;;;;;;;;6084991;23;20175;-92
2024/01/23 08:53:52;;;;;;;0.87;0.43;;;;;;;;;;6084835;23;20166;-93
2024/01/23 08:56:58;;;;;;;0.70;0.70;;;;;;;;;;6084940;23;20196;-94
2024/01/23 09:00:06;;;;;;;0.30;0.30;;;;;;;;;;6088938;23;20496;-91
2024/01/23 09:03:14;;;;;;;0.30;0.30;;;;;;;;;;6088273;23;20193;-91
2024/01/23 09:06:21;;;;;;;0.30;0.30;;;;;;;;;;6088727;23;20191;-92
2024/01/23 09:09:27;;;;;;;0.30;0.30;;;;;;;;;;6088081;23;20215;-93
2024/01/23 09:12:35;;;;;;;0.30;0.30;;;;;;;;;;6088230;23;20671;-90
2024/01/23 09:15:40;;;;;;;0.30;0.30;;;;;;;;;;6087032;23;20166;-92
2024/01/23 09:18:48;;;;;;;0.30;0.30;;;;;;;;;;6087154;23;20154;-93
2024/01/23 09:21:55;;;;;;;0.30;0.30;;;;;;;;;;6085813;23;20196;-92
2024/01/23 09:25:03;;;;;;;0.40;0.40;;;;;;;;;;6086535;23;20194;-90
2024/01/23 09:28:11;;;;;;;0.30;0.30;;;;;;;;;;6085543;23;20170;-93
2024/01/23 09:31:16;;;;;;;1.70;0.97;;;;;;;;;;6087986;23;20218;-92
2024/01/23 09:34:22;;;;;;;1.10;1.00;;;;;;;;;;6086360;23;20168;-90
2024/01/23 09:37:28;;;;;;;0.30;0.30;;;;;;;;;;6087868;23;20174;-93
2024/01/23 09:40:39;;;;;;;0.40;0.40;;;;;;;;;;6084041;23;20193;-92
2024/01/23 09:43:48;;;;;;;2.33;0.77;;;;;;;;;;6084825;23;20247;-92
2024/01/23 09:46:54;;;;;;;0.80;0.80;;;;;;;;;;6086184;23;20247;-91
2024/01/23 09:49:59;;;;;;;0.40;0.40;;;;;;;;;;6085643;23;20163;-91
2024/01/23 09:53:05;;;;;;;2.63;0.80;;;;;;;;;;6085340;23;20194;-92
2024/01/23 09:56:12;;;;;;;0.30;0.30;;;;;;;;;;6088265;23;20166;-92
2024/01/23 10:03:05;;;;;;;2.43;1.47;;;;;;;;;;6089636;23;20158;-91
2024/01/23 10:06:13;;;;;;;1.13;1.10;;;;;;;;;;6086777;23;20703;-92
2024/01/23 10:09:19;;;;;;;0.30;0.30;;;;;;;;;;6088083;23;20150;-93
2024/01/23 10:12:25;;;;;;;0.93;0.93;;;;;;;;;;6086806;23;20494;-90
2024/01/23 10:15:30;;;;;;;0.57;0.57;;;;;;;;;;6088024;23;20618;-92
2024/01/23 10:18:37;;;;;;;0.50;0.50;;;;;;;;;;6086980;23;20155;-92
2024/01/23 10:21:43;;;;;;;1.27;0.97;;;;;;;;;;6087685;23;20178;-91
2024/01/23 10:24:49;;;;;;;1.93;1.13;;;;;;;;;;6089500;23;20231;-91
2024/01/23 10:27:56;;;;;;;0.40;0.40;;;;;;;;;;6087500;23;20178;-91
2024/01/23 10:31:02;;;;;;;0.30;0.30;;;;;;;;;;6086895;23;20215;-92
2024/01/23 10:37:36;;;;;;;15.47;1.40;;;;;;;;;;6087835;23;20167;-93
2024/01/23 10:40:42;;;;;;;0.52;0.52;;;;;;;;;;6088185;23;20197;-93
2024/01/23 10:43:49;;;;;;;0.40;0.40;;;;;;;;;;6087118;23;20181;-91
2024/01/23 10:46:55;;;;;;;0.50;0.50;;;;;;;;;;6089218;23;20186;-93
2024/01/23 10:50:09;;;;;;;2.83;1.00;;;;;;;;;;6089919;23;20175;-91
2024/01/23 10:53:17;;;;;;;16.88;7.90;;;;;;;;;;6087652;23;20162;-90
2024/01/23 10:56:23;;;;;;;1.58;1.48;;;;;;;;;;6089773;23;20191;-91
2024/01/23 10:59:41;;;;;;;0.50;0.50;;;;;;;;;;6090328;23;20147;-92
2024/01/23 11:06:20;;;;;;;0.37;0.37;;;;;;;;;;6087660;23;20282;-93
2024/01/23 11:09:28;;;;;;;0.57;0.55;;;;;;;;;;6089186;23;20166;-91
2024/01/23 11:12:42;;;;;;;1.40;1.30;;;;;;;;;;6090056;23;20158;-93
2024/01/23 11:15:51;;;;;;;0.50;0.50;;;;;;;;;;6088034;23;20182;-92
2024/01/23 11:18:57;;;;;;;3.07;1.30;;;;;;;;;;6086257;23;20187;-93
2024/01/23 11:22:09;;;;;;;2.28;1.60;;;;;;;;;;6086273;23;20154;-91
2024/01/23 13:22:39;;;;;;;0.60;0.60;;;;;;;;;;6070564;23;20218;-91
2024/01/23 13:25:46;;;;;;;0.40;0.40;;;;;;;;;;6085426;23;20570;-92
2024/01/23 13:28:52;;;;;;;0.30;0.30;;;;;;;;;;6086937;23;20178;-91
2024/01/23 13:31:58;;;;;;;0.40;0.40;;;;;;;;;;6088128;23;20162;-93
2024/01/23 13:35:03;;;;;;;0.43;0.43;;;;;;;;;;6088452;23;20167;-92
2024/01/23 13:38:11;;;;;;;0.35;0.35;;;;;;;;;;6090416;23;20208;-90
2024/01/23 13:41:16;;;;;;;0.30;0.30;;;;;;;;;;6088119;23;20496;-90
2024/01/23 13:44:22;;;;;;;4.40;1.33;;;;;;;;;;6091193;23;20207;-90
2024/01/23 13:47:28;;;;;;;0.30;0.30;;;;;;;;;;6091071;23;20513;-91
2024/01/23 13:50:34;;;;;;;0.43;0.43;;;;;;;;;;6089737;23;20174;-92
2024/01/23 13:53:42;;;;;;;0.45;0.45;;;;;;;;;;6088738;23;20170;-93
2024/01/23 13:56:48;;;;;;;4.35;0.68;;;;;;;;;;6089714;23;20159;-91
2024/01/23 13:59:53;;;;;;;0.40;0.40;;;;;;;;;;6086348;23;20191;-92
2024/01/23 14:02:58;;;;;;;0.38;0.38;;;;;;;;;;6087552;23;20234;-93
2024/01/23 14:06:04;;;;;;;0.40;0.40;;;;;;;;;;6087335;23;20198;-91
2024/01/23 14:09:12;;;;;;;0.35;0.35;;;;;;;;;;6087511;23;20219;-94
2024/01/23 14:12:17;;;;;;;1.55;1.10;;;;;;;;;;6089948;23;20174;-91
2024/01/23 14:15:23;;;;;;;0.30;0.30;;;;;;;;;;6088080;23;20174;-91
2024/01/23 14:18:30;;;;;;;0.30;0.30;;;;;;;;;;6087918;23;20166;-90
2024/01/23 14:21:35;;;;;;;0.40;0.40;;;;;;;;;;6087124;23;20235;-90
2024/01/23 14:24:47;;;;;;;0.50;0.50;;;;;;;;;;6086899;23;20260;-92
2024/01/23 14:27:56;;;;;;;3.03;1.20;;;;;;;;;;6089473;23;20195;-91
2024/01/23 14:31:04;;;;;;;0.93;0.75;;;;;;;;;;6090325;23;20174;-91
2024/01/23 14:34:11;;;;;;;0.55;0.52;;;;;;;;;;6091591;23;20166;-93
2024/01/23 14:37:17;;;;;;;5.60;0.50;;;;;;;;;;6092444;23;20738;-92
2024/01/23 15:15:37;;;;;;;8.27;1.85;;;;;;;;;;6057574;23;20219;-89
2024/01/23 15:18:43;;;;;;;11.05;2.50;;;;;;;;;;6086895;23;20169;-90
2024/01/23 15:21:48;;;;;;;5.78;1.75;;;;;;;;;;6084987;23;20155;-89
2024/01/23 15:24:54;;;;;;;6.72;1.65;;;;;;;;;;6085668;23;20166;-93
2024/01/23 15:27:59;;;;;;;8.10;1.73;;;;;;;;;;6085698;23;20171;-90
2024/01/23 15:31:07;;;;;;;6.77;2.10;;;;;;;;;;6085982;23;20190;-92
2024/01/23 15:34:13;;;;;;;7.88;2.03;;;;;;;;;;6083376;23;20158;-91
2024/01/23 15:37:19;;;;;;;12.60;2.10;;;;;;;;;;6084947;23;20170;-93
2024/01/23 15:40:24;;;;;;;7.82;1.92;;;;;;;;;;6086200;23;20202;-90
2024/01/23 15:43:30;;;;;;;11.43;3.37;;;;;;;;;;6084418;23;20247;-91
2024/01/23 15:46:37;;;;;;;7.00;2.10;;;;;;;;;;6084167;23;20197;-92
2024/01/23 15:49:43;;;;;;;11.20;3.07;;;;;;;;;;6083426;23;20176;-93
2024/01/23 15:52:51;;;;;;;10.20;2.57;;;;;;;;;;6086884;23;20172;-91
2024/01/23 15:55:57;;;;;;;11.73;2.90;;;;;;;;;;6085627;23;20179;-94
2024/01/23 15:59:03;;;;;;;17.70;4.05;;;;;;;;;;6087209;23;20167;-91
2024/01/23 16:02:11;;;;;;;16.67;5.07;;;;;;;;;;6086131;23;20194;-93
2024/01/23 16:05:16;;;;;;;13.17;3.90;;;;;;;;;;6084636;23;20205;-93
2024/01/23 16:08:26;;;;;;;13.07;4.37;;;;;;;;;;6085885;23;20627;-90
2024/01/23 16:11:32;;;;;;;9.63;2.63;;;;;;;;;;6085548;23;20292;-91
2024/01/23 16:14:37;;;;;;;11.97;2.23;;;;;;;;;;6085466;23;20174;-92
2024/01/23 16:17:45;;;;;;;9.57;2.37;;;;;;;;;;6085112;23;20219;-90
2024/01/23 16:20:52;;;;;;;6.70;1.70;;;;;;;;;;6084443;23;20175;-93
2024/01/23 16:23:57;;;;;;;9.73;1.90;;;;;;;;;;6084734;23;20215;-92
2024/01/23 16:27:03;;;;;;;9.53;2.07;;;;;;;;;;6085787;23;20202;-92
2024/01/23 16:30:09;;;;;;;12.63;2.87;;;;;;;;;;6084546;23;20170;-91
2024/01/23 16:33:17;;;;;;;9.67;2.27;;;;;;;;;;6088027;23;20163;-92
2024/01/23 16:36:23;;;;;;;74.17;31.33;;;;;;;;;;6085702;23;20166;-92
2024/01/23 16:39:30;;;;;;;11.80;3.43;;;;;;;;;;6083940;23;20170;-92
2024/01/23 16:42:35;;;;;;;16.10;2.80;;;;;;;;;;6085593;23;20187;-92
2024/01/23 16:45:46;;;;;;;7.50;2.70;;;;;;;;;;6086585;23;20174;-92
2024/01/23 16:48:54;;;;;;;20.70;8.50;;;;;;;;;;6085669;23;20197;-93
2024/01/23 16:51:59;;;;;;;14.47;4.10;;;;;;;;;;6084846;23;20166;-93
2024/01/23 16:55:05;;;;;;;10.40;3.33;;;;;;;;;;6085114;23;20207;-89
2024/01/23 16:58:10;;;;;;;16.80;4.97;;;;;;;;;;6083389;23;20158;-92
2024/01/23 17:01:20;;;;;;;11.10;5.23;;;;;;;;;;6083646;23;20241;-91
2024/01/23 17:04:29;;;;;;;12.47;4.47;;;;;;;;;;6085090;23;20167;-90
2024/01/23 17:07:38;;;;;;;11.33;3.67;;;;;;;;;;6084600;23;20251;-90
2024/01/23 17:10:44;;;;;;;5.40;2.60;;;;;;;;;;6085460;23;20178;-91
2024/01/23 17:13:49;;;;;;;12.00;3.20;;;;;;;;;;6085742;23;20162;-90
2024/01/23 17:16:55;;;;;;;11.27;3.23;;;;;;;;;;6087805;23;20234;-91
2024/01/23 17:20:16;;;;;;;9.00;3.70;;;;;;;;;;6085251;23;20203;-91
2024/01/23 17:23:27;;;;;;;14.47;3.70;;;;;;;;;;6089820;23;20184;-90
2024/01/23 17:26:39;;;;;;;10.30;3.13;;;;;;;;;;6085313;23;20209;-91
2024/01/23 17:29:46;;;;;;;17.90;4.40;;;;;;;;;;6087938;23;20167;-90
2024/01/23 17:32:53;;;;;;;18.47;6.10;;;;;;;;;;6091104;23;20154;-88
2024/01/23 17:36:02;;;;;;;23.00;7.20;;;;;;;;;;6085843;23;20618;-90
2024/01/23 17:39:13;;;;;;;16.73;6.20;;;;;;;;;;6087295;23;20204;-92
2024/01/23 17:42:20;;;;;;;18.77;6.10;;;;;;;;;;6087200;23;20204;-92
2024/01/23 17:45:26;;;;;;;18.83;5.27;;;;;;;;;;6084115;23;20243;-89
2024/01/23 17:48:48;;;;;;;17.37;5.70;;;;;;;;;;6088156;23;20175;-92
2024/01/23 17:51:53;;;;;;;19.33;6.93;;;;;;;;;;6086728;23;20158;-90
2024/01/23 17:55:02;;;;;;;25.23;7.97;;;;;;;;;;6086465;23;20686;-89
2024/01/23 17:58:18;;;;;;;21.23;6.07;;;;;;;;;;6087126;23;20175;-92
2024/01/23 18:01:28;;;;;;;15.50;6.03;;;;;;;;;;6087970;23;20303;-90
2024/01/23 18:04:33;;;;;;;20.10;7.07;;;;;;;;;;6086528;23;20178;-90
2024/01/23 18:07:39;;;;;;;18.50;7.27;;;;;;;;;;6089710;23;20218;-89
2024/01/23 18:10:46;;;;;;;19.07;6.73;;;;;;;;;;6085351;23;20170;-91
2024/01/23 18:13:51;;;;;;;22.57;7.60;;;;;;;;;;6088015;23;20175;-91
2024/01/23 18:16:57;;;;;;;24.17;8.50;;;;;;;;;;6088949;23;20224;-89
2024/01/23 18:20:03;;;;;;;19.20;7.77;;;;;;;;;;6087744;23;20167;-90
2024/01/23 18:23:08;;;;;;;29.73;11.60;;;;;;;;;;6088468;23;20169;-92
2024/01/23 18:26:16;;;;;;;38.97;12.33;;;;;;;;;;6086465;23;20174;-91
2024/01/23 18:29:21;;;;;;;29.73;11.07;;;;;;;;;;6086328;23;20237;-93
2024/01/23 18:32:28;;;;;;;29.27;11.03;;;;;;;;;;6087739;23;20170;-92
2024/01/23 18:35:35;;;;;;;29.40;10.37;;;;;;;;;;6084582;23;20175;-93
2024/01/23 18:38:42;;;;;;;32.17;9.80;;;;;;;;;;6090535;23;20174;-93
2024/01/23 18:41:50;;;;;;;33.10;12.23;;;;;;;;;;6093800;23;20194;-90
2024/01/23 18:44:55;;;;;;;27.83;9.33;;;;;;;;;;6084995;23;20254;-93
2024/01/23 18:48:00;;;;;;;23.27;8.60;;;;;;;;;;6088132;23;20243;-92
2024/01/23 18:51:16;;;;;;;15.03;5.10;;;;;;;;;;6085789;23;20246;-90
2024/01/23 18:54:25;;;;;;;15.00;5.50;;;;;;;;;;6089247;23;20219;-93
2024/01/23 18:57:37;;;;;;;10.43;4.20;;;;;;;;;;6088386;23;20170;-88
2024/01/23 19:00:53;;;;;;;10.07;4.50;;;;;;;;;;6087617;23;20171;-92
2024/01/23 19:04:00;;;;;;;17.40;5.23;;;;;;;;;;6089868;23;20171;-91
2024/01/23 19:07:07;;;;;;;17.50;5.53;;;;;;;;;;6087829;23;20199;-90
2024/01/23 19:10:14;;;;;;;13.37;4.80;;;;;;;;;;6090223;23;20166;-91
2024/01/23 19:13:25;;;;;;;14.70;5.90;;;;;;;;;;6088118;23;20155;-89
2024/01/23 19:16:31;;;;;;;17.80;5.43;;;;;;;;;;6089634;23;20195;-92
2024/01/23 19:19:37;;;;;;;19.07;7.57;;;;;;;;;;6090224;23;20170;-93
2024/01/23 23:09:20;;;;;;;11.67;5.57;;;;;;;;;;6041064;23;20231;-92
2024/01/23 23:21:59;;;;;;;14.43;5.73;;;;;;;;;;6057903;23;20199;-90
2024/01/23 23:46:01;;;;;;;17.30;7.10;;;;;;;;;;6090333;23;20179;-90
2024/01/23 23:49:07;;;;;;;19.43;7.30;;;;;;;;;;6090961;23;20162;-91
2024/01/23 23:52:19;;;;;;;12.93;5.80;;;;;;;;;;6071509;23;20279;-91
2024/01/23 23:55:27;;;;;;;13.90;6.33;;;;;;;;;;6061244;23;20167;-91
2024/01/23 23:58:37;;;;;;;12.90;5.80;;;;;;;;;;6059470;23;20202;-91
